Isuzu — JD3277 — position and weather

sailwx.info

Track history (hours):
 
Tides and Currents Weather Stations Pressure Air Temp Water Temp Dewpoint Dewpoint Depression Visibility Wind Speed Wind Dir Waves Ship Positions

Isuzu

Last reported at 2018-Jan-11 08:33 UTC. Time now 2018-Jan-18 07:40 UTC.
Position N 34°32' E 134°08'.

Length 65 m; draft 4.3 m.

Type: Tanker. MMSI: 431003203.

Date/timePositionNaut miles runAvg speedWind from/ knotsBaromVisibWave heightAir tempDewpointWater temp
2018-Jan-11 08:33N 34°32' E 134°08'111.9
2018-Jan-11 08:30N 34°32' E 134°09'1312.0
2018-Jan-11 07:27N 34°39' E 134°22'711.9
2018-Jan-11 06:50N 34°42' E 134°29'512.0
2018-Jan-11 06:27N 34°43' E 134°35'5 9.9
2018-Jan-11 05:59N 34°47' E 134°38'0 0.0
2018-Jan-10 22:22N 34°47' E 134°38'2 4.3
2018-Jan-10 21:54N 34°45' E 134°38'0 0.1
2018-Jan-10 17:04N 34°45' E 134°38'0 0.0
2018-Jan-10 16:52N 34°45' E 134°38'0 0.0
2018-Jan-10 16:16N 34°45' E 134°38'0 0.2
2018-Jan-10 15:59N 34°45' E 134°38'610.2
2018-Jan-10 15:26N 34°43' E 134°32'2113.1
2018-Jan-10 13:49N 34°32' E 134°09'7811.8
2018-Jan-10 07:15N 34°05' E 132°41'313.5
2018-Jan-10 07:00N 34°04' E 132°38'911.3
2018-Jan-10 06:12N 34°05' E 132°27'412.9
2018-Jan-10 05:56N 34°07' E 132°23'613.0
2018-Jan-10 05:30N 34°11' E 132°18'3 6.7
2018-Jan-10 05:00N 34°13' E 132°16'0 0.5
2018-Jan-10 04:30N 34°13' E 132°15'1 2.6
2018-Jan-10 04:00N 34°14' E 132°14'0 0.1
2018-Jan-09 23:50N 34°14' E 132°14'0 0.0
2018-Jan-09 22:20N 34°14' E 132°14'0 0.5
2018-Jan-09 22:00N 34°14' E 132°14'1 0.1
2018-Jan-09 05:54N 34°13' E 132°15'2 5.5
2018-Jan-09 05:30N 34°12' E 132°17'611.5
2018-Jan-09 05:00N 34°08' E 132°22'1011.7
2018-Jan-09 04:11N 34°02' E 132°31'3 9.8
2018-Jan-09 03:53N 34°03' E 132°34'410.3
2018-Jan-09 03:30N 34°05' E 132°39'74 9.8
2018-Jan-08 19:59N 34°27' E 134°04'1910.9
2018-Jan-08 18:17N 34°21' E 134°25'411.5
2018-Jan-08 17:55N 34°19' E 134°29'911.7
2018-Jan-08 17:11N 34°15' E 134°39'212.4
2018-Jan-08 17:00N 34°13' E 134°40'611.3
2018-Jan-08 16:30N 34°08' E 134°44'5 9.4
2018-Jan-08 15:59N 34°05' E 134°48'1 2.1
2018-Jan-08 15:30N 34°05' E 134°49'4 7.6
2018-Jan-08 14:59N 34°02' E 134°52'4 6.3
2018-Jan-08 14:24N 34°05' E 134°54'4 8.9
2018-Jan-08 14:00N 34°04' E 134°59'4 8.1
2018-Jan-08 13:28N 33°60' E 135°00'5 9.7
2018-Jan-08 13:00N 33°55' E 135°01'179 9.5
2018-Jan-07 18:10N 34°34' E 138°33'612.7
2018-Jan-07 17:41N 34°35' E 138°40'1212.5
2018-Jan-07 16:45N 34°36' E 138°54'410.8
2018-Jan-07 16:22N 34°38' E 138°59'411.5
2018-Jan-07 16:00N 34°40' E 139°03'912.5
2018-Jan-07 15:19N 34°45' E 139°11'51 1.6
2018-Jan-06 08:02N 35°01' E 140°11'312.6
2018-Jan-06 07:48N 34°59' E 140°08'1812.7
2018-Jan-06 06:24N 34°53' E 139°48'512.1
2018-Jan-06 06:00N 34°57' E 139°45'611.8
2018-Jan-06 05:30N 35°03' E 139°44'612.3
2018-Jan-06 05:01N 35°09' E 139°45'712.9
2018-Jan-06 04:30N 35°15' E 139°46'613.0
2018-Jan-06 04:00N 35°21' E 139°42'612.0
2018-Jan-06 03:31N 35°27' E 139°45'4 8.2
2018-Jan-06 03:00N 35°30' E 139°46'0 0.1
2018-Jan-05 23:19N 35°31' E 139°46'0 0.0
2018-Jan-05 23:00N 35°31' E 139°46'2 4.1
2018-Jan-05 22:30N 35°30' E 139°49'1 1.0
2018-Jan-05 21:55N 35°29' E 139°49'0 0.1
2018-Jan-05 21:22N 35°29' E 139°49'0 0.0
2018-Jan-05 20:58N 35°29' E 139°49'0 0.0
2018-Jan-05 20:16N 35°29' E 139°49'0 0.0
2018-Jan-05 19:55N 35°29' E 139°49'0 0.0
2018-Jan-05 19:22N 35°29' E 139°49'0 0.0
2018-Jan-05 18:40N 35°29' E 139°49'0 0.0
2018-Jan-05 18:28N 35°29' E 139°49'0 0.0
2018-Jan-05 17:52N 35°29' E 139°49'0 0.1
2018-Jan-05 17:28N 35°29' E 139°49'0 0.1
2018-Jan-05 16:58N 35°29' E 139°49'0 0.1
2018-Jan-05 16:28N 35°29' E 139°49'0 0.0
2018-Jan-05 15:58N 35°29' E 139°49'0 0.0
2018-Jan-05 15:28N 35°29' E 139°49'1 3.0
2018-Jan-05 15:00N 35°28' E 139°48'611.9
2018-Jan-05 14:30N 35°23' E 139°45'510.3
2018-Jan-05 14:01N 35°17' E 139°45'510.5
2018-Jan-05 13:30N 35°12' E 139°47'611.9
2018-Jan-05 13:01N 35°07' E 139°44'611.8
2018-Jan-05 12:30N 35°03' E 139°39'612.1
2018-Jan-05 11:59N 34°59' E 139°33'711.7
2018-Jan-05 11:22N 34°54' E 139°26'512.0
2018-Jan-05 11:00N 34°51' E 139°22'712.2
2018-Jan-05 10:27N 34°47' E 139°16'812.3
2018-Jan-05 09:48N 34°42' E 139°08'412.4
2018-Jan-05 09:31N 34°40' E 139°04'711.8
2018-Jan-05 08:57N 34°36' E 138°58'510.6
2018-Jan-05 08:29N 34°35' E 138°52'711.8
2018-Jan-05 07:55N 34°34' E 138°44'1112.0
2018-Jan-05 07:01N 34°31' E 138°32'17811.0
2018-Jan-04 14:53N 33°52' E 135°02'512.8
2018-Jan-04 14:30N 33°55' E 134°58'612.4
2018-Jan-04 14:00N 34°00' E 134°53'612.7
2018-Jan-04 13:30N 34°05' E 134°48'712.6
2018-Jan-04 12:58N 34°10' E 134°43'511.3
2018-Jan-04 12:30N 34°14' E 134°39'611.4
2018-Jan-04 12:00N 34°17' E 134°33'612.0
2018-Jan-04 11:29N 34°19' E 134°26'86 2.7
2018-Jan-03 03:51N 34°04' E 132°43'412.5
2018-Jan-03 03:31N 34°02' E 132°39'812.8
2018-Jan-03 02:55N 33°57' E 132°32'512.8
2018-Jan-03 02:30N 33°53' E 132°27'612.9
2018-Jan-03 02:00N 33°50' E 132°21'713.8
2018-Jan-03 01:30N 33°49' E 132°12'713.8
2018-Jan-03 01:00N 33°46' E 132°05'711.9
2018-Jan-03 00:24N 33°49' E 131°57'812.9
2018-Jan-02 23:49N 33°54' E 131°50'412.7
2018-Jan-02 23:30N 33°57' E 131°47'5 9.6
2018-Jan-02 22:58N 34°02' E 131°48'0 0.0
2018-Jan-02 03:40N 34°02' E 131°48'1 3.3
2018-Jan-02 03:30N 34°02' E 131°48'4 8.0
2018-Jan-02 02:59N 33°59' E 131°45'510.7
2018-Jan-02 02:30N 34°02' E 131°49'0 0.0
2018-Jan-01 22:39N 34°02' E 131°49'0 0.0
2018-Jan-01 22:31N 34°02' E 131°49'0 0.7
2018-Jan-01 22:00N 34°02' E 131°49'4 7.9
2018-Jan-01 21:30N 33°59' E 131°45'612.1
2018-Jan-01 21:00N 33°55' E 131°50'612.5
2018-Jan-01 20:30N 33°51' E 131°56'712.8
2018-Jan-01 19:59N 33°46' E 132°01'1211.4
2018-Jan-01 18:58N 33°50' E 132°15'1211.6
2018-Jan-01 17:54N 33°55' E 132°29'613.7
2018-Jan-01 17:27N 33°59' E 132°34'7912.0
2018-Jan-01 10:53N 34°27' E 134°03'1912.5
2018-Jan-01 09:21N 34°21' E 134°25'  
Track history (hours):
 
Tides and Currents Weather Stations Pressure Air Temp Water Temp Dewpoint Dewpoint Depression Visibility Wind Speed Wind Dir Waves Ship Positions

Isuzu

Last reported at 2018-Jan-11 08:33 UTC. Time now 2018-Jan-18 07:40 UTC.
Position N 34°32' E 134°08'.

Length 65 m; draft 4.3 m.

Type: Tanker. MMSI: 431003203.

Date/timePositionNaut miles runAvg speedWind from/ knotsBaromVisibWave heightAir tempDewpointWater temp
2018-Jan-11 08:33N 34°32' E 134°08'111.9
2018-Jan-11 08:30N 34°32' E 134°09'1312.0
2018-Jan-11 07:27N 34°39' E 134°22'711.9
2018-Jan-11 06:50N 34°42' E 134°29'512.0
2018-Jan-11 06:27N 34°43' E 134°35'5 9.9
2018-Jan-11 05:59N 34°47' E 134°38'0 0.0
2018-Jan-10 22:22N 34°47' E 134°38'2 4.3
2018-Jan-10 21:54N 34°45' E 134°38'0 0.1
2018-Jan-10 17:04N 34°45' E 134°38'0 0.0
2018-Jan-10 16:52N 34°45' E 134°38'0 0.0
2018-Jan-10 16:16N 34°45' E 134°38'0 0.2
2018-Jan-10 15:59N 34°45' E 134°38'610.2
2018-Jan-10 15:26N 34°43' E 134°32'2113.1
2018-Jan-10 13:49N 34°32' E 134°09'7811.8
2018-Jan-10 07:15N 34°05' E 132°41'313.5
2018-Jan-10 07:00N 34°04' E 132°38'911.3
2018-Jan-10 06:12N 34°05' E 132°27'412.9
2018-Jan-10 05:56N 34°07' E 132°23'613.0
2018-Jan-10 05:30N 34°11' E 132°18'3 6.7
2018-Jan-10 05:00N 34°13' E 132°16'0 0.5
2018-Jan-10 04:30N 34°13' E 132°15'1 2.6
2018-Jan-10 04:00N 34°14' E 132°14'0 0.1
2018-Jan-09 23:50N 34°14' E 132°14'0 0.0
2018-Jan-09 22:20N 34°14' E 132°14'0 0.5
2018-Jan-09 22:00N 34°14' E 132°14'1 0.1
2018-Jan-09 05:54N 34°13' E 132°15'2 5.5
2018-Jan-09 05:30N 34°12' E 132°17'611.5
2018-Jan-09 05:00N 34°08' E 132°22'1011.7
2018-Jan-09 04:11N 34°02' E 132°31'3 9.8
2018-Jan-09 03:53N 34°03' E 132°34'410.3
2018-Jan-09 03:30N 34°05' E 132°39'74 9.8
2018-Jan-08 19:59N 34°27' E 134°04'1910.9
2018-Jan-08 18:17N 34°21' E 134°25'411.5
2018-Jan-08 17:55N 34°19' E 134°29'911.7
2018-Jan-08 17:11N 34°15' E 134°39'212.4
2018-Jan-08 17:00N 34°13' E 134°40'611.3
2018-Jan-08 16:30N 34°08' E 134°44'5 9.4
2018-Jan-08 15:59N 34°05' E 134°48'1 2.1
2018-Jan-08 15:30N 34°05' E 134°49'4 7.6
2018-Jan-08 14:59N 34°02' E 134°52'4 6.3
2018-Jan-08 14:24N 34°05' E 134°54'4 8.9
2018-Jan-08 14:00N 34°04' E 134°59'4 8.1
2018-Jan-08 13:28N 33°60' E 135°00'5 9.7
2018-Jan-08 13:00N 33°55' E 135°01'179 9.5
2018-Jan-07 18:10N 34°34' E 138°33'612.7
2018-Jan-07 17:41N 34°35' E 138°40'1212.5
2018-Jan-07 16:45N 34°36' E 138°54'410.8
2018-Jan-07 16:22N 34°38' E 138°59'411.5
2018-Jan-07 16:00N 34°40' E 139°03'912.5
2018-Jan-07 15:19N 34°45' E 139°11'51 1.6
2018-Jan-06 08:02N 35°01' E 140°11'312.6
2018-Jan-06 07:48N 34°59' E 140°08'1812.7
2018-Jan-06 06:24N 34°53' E 139°48'512.1
2018-Jan-06 06:00N 34°57' E 139°45'611.8
2018-Jan-06 05:30N 35°03' E 139°44'612.3
2018-Jan-06 05:01N 35°09' E 139°45'712.9
2018-Jan-06 04:30N 35°15' E 139°46'613.0
2018-Jan-06 04:00N 35°21' E 139°42'612.0
2018-Jan-06 03:31N 35°27' E 139°45'4 8.2
2018-Jan-06 03:00N 35°30' E 139°46'0 0.1
2018-Jan-05 23:19N 35°31' E 139°46'0 0.0
2018-Jan-05 23:00N 35°31' E 139°46'2 4.1
2018-Jan-05 22:30N 35°30' E 139°49'1 1.0
2018-Jan-05 21:55N 35°29' E 139°49'0 0.1
2018-Jan-05 21:22N 35°29' E 139°49'0 0.0
2018-Jan-05 20:58N 35°29' E 139°49'0 0.0
2018-Jan-05 20:16N 35°29' E 139°49'0 0.0
2018-Jan-05 19:55N 35°29' E 139°49'0 0.0
2018-Jan-05 19:22N 35°29' E 139°49'0 0.0
2018-Jan-05 18:40N 35°29' E 139°49'0 0.0
2018-Jan-05 18:28N 35°29' E 139°49'0 0.0
2018-Jan-05 17:52N 35°29' E 139°49'0 0.1
2018-Jan-05 17:28N 35°29' E 139°49'0 0.1
2018-Jan-05 16:58N 35°29' E 139°49'0 0.1
2018-Jan-05 16:28N 35°29' E 139°49'0 0.0
2018-Jan-05 15:58N 35°29' E 139°49'0 0.0
2018-Jan-05 15:28N 35°29' E 139°49'1 3.0
2018-Jan-05 15:00N 35°28' E 139°48'611.9
2018-Jan-05 14:30N 35°23' E 139°45'510.3
2018-Jan-05 14:01N 35°17' E 139°45'510.5
2018-Jan-05 13:30N 35°12' E 139°47'611.9
2018-Jan-05 13:01N 35°07' E 139°44'611.8
2018-Jan-05 12:30N 35°03' E 139°39'612.1
2018-Jan-05 11:59N 34°59' E 139°33'711.7
2018-Jan-05 11:22N 34°54' E 139°26'512.0
2018-Jan-05 11:00N 34°51' E 139°22'712.2
2018-Jan-05 10:27N 34°47' E 139°16'812.3
2018-Jan-05 09:48N 34°42' E 139°08'412.4
2018-Jan-05 09:31N 34°40' E 139°04'711.8
2018-Jan-05 08:57N 34°36' E 138°58'510.6
2018-Jan-05 08:29N 34°35' E 138°52'711.8
2018-Jan-05 07:55N 34°34' E 138°44'1112.0
2018-Jan-05 07:01N 34°31' E 138°32'17811.0
2018-Jan-04 14:53N 33°52' E 135°02'512.8
2018-Jan-04 14:30N 33°55' E 134°58'612.4
2018-Jan-04 14:00N 34°00' E 134°53'612.7
2018-Jan-04 13:30N 34°05' E 134°48'712.6
2018-Jan-04 12:58N 34°10' E 134°43'511.3
2018-Jan-04 12:30N 34°14' E 134°39'611.4
2018-Jan-04 12:00N 34°17' E 134°33'612.0
2018-Jan-04 11:29N 34°19' E 134°26'86 2.7
2018-Jan-03 03:51N 34°04' E 132°43'412.5
2018-Jan-03 03:31N 34°02' E 132°39'812.8
2018-Jan-03 02:55N 33°57' E 132°32'512.8
2018-Jan-03 02:30N 33°53' E 132°27'612.9
2018-Jan-03 02:00N 33°50' E 132°21'713.8
2018-Jan-03 01:30N 33°49' E 132°12'713.8
2018-Jan-03 01:00N 33°46' E 132°05'711.9
2018-Jan-03 00:24N 33°49' E 131°57'812.9
2018-Jan-02 23:49N 33°54' E 131°50'412.7
2018-Jan-02 23:30N 33°57' E 131°47'5 9.6
2018-Jan-02 22:58N 34°02' E 131°48'0 0.0
2018-Jan-02 03:40N 34°02' E 131°48'1 3.3
2018-Jan-02 03:30N 34°02' E 131°48'4 8.0
2018-Jan-02 02:59N 33°59' E 131°45'510.7
2018-Jan-02 02:30N 34°02' E 131°49'0 0.0
2018-Jan-01 22:39N 34°02' E 131°49'0 0.0
2018-Jan-01 22:31N 34°02' E 131°49'0 0.7
2018-Jan-01 22:00N 34°02' E 131°49'4 7.9
2018-Jan-01 21:30N 33°59' E 131°45'612.1
2018-Jan-01 21:00N 33°55' E 131°50'612.5
2018-Jan-01 20:30N 33°51' E 131°56'712.8
2018-Jan-01 19:59N 33°46' E 132°01'1211.4
2018-Jan-01 18:58N 33°50' E 132°15'1211.6
2018-Jan-01 17:54N 33°55' E 132°29'613.7
2018-Jan-01 17:27N 33°59' E 132°34'7912.0
2018-Jan-01 10:53N 34°27' E 134°03'1912.5
2018-Jan-01 09:21N 34°21' E 134°25'  

Dump ship's entire track history